Time;durP1;ratioP1;P1;durP2;ratioP2;P2;SDS_P1;SDS_P2;PMS_P1;PMS_P2;Temp;Humidity;BMP_temperature;BMP_pressure;BME280_temperature;BME280_humidity;BME280_pressure;Samples;Min_cycle;Max_cycle;Signal;HPM_P1;HPM_P2
2022/10/10 00:00:42;;;;;;;9.30;6.63;;;11.00;99.90;;;;;;5092378;28;20031;-70
2022/10/10 00:03:09;;;;;;;12.23;6.88;;;11.00;99.90;;;;;;5088559;28;20366;-70
2022/10/10 00:05:36;;;;;;;12.18;7.30;;;11.00;99.90;;;;;;5092477;28;20162;-70
2022/10/10 00:08:02;;;;;;;14.82;7.63;;;11.10;99.90;;;;;;5091106;28;20114;-70
2022/10/10 00:10:27;;;;;;;11.45;7.30;;;11.10;99.90;;;;;;5091438;28;20040;-69
2022/10/10 00:12:53;;;;;;;10.65;7.80;;;11.20;99.90;;;;;;5091837;28;20039;-70
2022/10/10 00:15:19;;;;;;;12.85;8.10;;;11.20;99.90;;;;;;5091481;28;20578;-70
2022/10/10 00:17:44;;;;;;;13.40;7.75;;;11.20;99.90;;;;;;5092266;28;20031;-70
2022/10/10 00:20:11;;;;;;;10.15;7.13;;;11.30;99.90;;;;;;5090270;28;20032;-70
2022/10/10 00:22:37;;;;;;;11.68;8.00;;;11.30;99.90;;;;;;5091907;28;20036;-69
2022/10/10 00:25:04;;;;;;;9.07;7.55;;;11.40;99.90;;;;;;5090395;28;20024;-70
2022/10/10 00:27:29;;;;;;;10.43;7.25;;;11.40;99.90;;;;;;5092264;28;20028;-70
2022/10/10 00:29:55;;;;;;;11.63;7.60;;;11.40;99.90;;;;;;5091699;28;20028;-70
2022/10/10 00:32:21;;;;;;;11.85;8.38;;;11.50;99.90;;;;;;5090955;28;20024;-70
2022/10/10 00:34:46;;;;;;;12.00;6.78;;;11.50;99.90;;;;;;5089762;28;20036;-69
2022/10/10 00:37:12;;;;;;;10.57;6.78;;;11.60;99.90;;;;;;5090581;28;20029;-70
2022/10/10 00:39:38;;;;;;;11.23;6.80;;;11.60;99.90;;;;;;5092005;28;20363;-70
2022/10/10 00:42:04;;;;;;;8.57;7.10;;;11.60;99.90;;;;;;5090486;28;20036;-70
2022/10/10 00:44:29;;;;;;;8.60;6.43;;;11.50;99.90;;;;;;5091245;28;20028;-70
2022/10/10 00:46:55;;;;;;;10.25;6.50;;;11.60;99.90;;;;;;5090819;28;20396;-70
2022/10/10 00:49:25;;;;;;;8.88;6.75;;;11.50;99.90;;;;;;5090996;28;20052;-70
2022/10/10 00:51:55;;;;;;;10.35;6.70;;;11.50;99.90;;;;;;5089290;28;20035;-70
2022/10/10 00:54:23;;;;;;;9.95;6.88;;;11.50;99.90;;;;;;5087514;28;20116;-71
2022/10/10 00:56:59;;;;;;;8.82;6.25;;;11.50;99.90;;;;;;5090118;28;20036;-70
2022/10/10 00:59:29;;;;;;;8.55;6.18;;;11.50;99.90;;;;;;5091363;28;20040;-70
2022/10/10 01:01:55;;;;;;;9.95;5.85;;;11.50;99.90;;;;;;5080820;28;20070;-70
2022/10/10 01:04:39;;;;;;;8.65;6.18;;;11.50;99.90;;;;;;5089788;28;20107;-70
2022/10/10 01:07:11;;;;;;;8.98;6.28;;;11.50;99.90;;;;;;5078619;28;20465;-70
2022/10/10 01:09:39;;;;;;;11.15;6.00;;;11.40;99.90;;;;;;5086736;28;20121;-70
2022/10/10 01:12:19;;;;;;;9.57;6.45;;;11.40;99.90;;;;;;5090252;28;20027;-69
2022/10/10 01:14:58;;;;;;;6.45;5.50;;;11.40;99.90;;;;;;5088883;28;20024;-69
2022/10/10 01:17:57;;;;;;;10.27;6.07;;;11.40;99.90;;;;;;5085815;28;20044;-71
2022/10/10 01:20:52;;;;;;;11.93;7.82;;;11.40;99.90;;;;;;5037330;28;20036;-70
2022/10/10 01:23:39;;;;;;;10.15;7.80;;;11.40;99.90;;;;;;5079226;28;20142;-70
2022/10/10 01:26:27;;;;;;;13.80;7.18;;;11.40;99.90;;;;;;5087079;28;20039;-70
2022/10/10 01:29:22;;;;;;;9.52;7.10;;;11.40;99.90;;;;;;5073815;28;20450;-69
2022/10/10 01:31:53;;;;;;;15.73;7.68;;;11.40;99.90;;;;;;5090664;28;20103;-70
2022/10/10 01:34:52;;;;;;;11.60;7.53;;;11.40;99.90;;;;;;5090658;28;20024;-69
2022/10/10 01:37:35;;;;;;;7.63;6.87;;;11.40;99.90;;;;;;5085915;28;20351;-69
2022/10/10 01:40:12;;;;;;;11.75;6.93;;;11.40;99.90;;;;;;5090429;28;20337;-69
2022/10/10 01:42:46;;;;;;;7.05;6.10;;;11.40;99.90;;;;;;5089937;28;20178;-71
2022/10/10 01:45:12;;;;;;;9.80;6.70;;;11.40;99.90;;;;;;5089080;28;20440;-70
2022/10/10 01:47:38;;;;;;;8.82;7.00;;;11.30;99.90;;;;;;5090805;28;20056;-70
2022/10/10 01:50:09;;;;;;;10.73;6.95;;;11.30;99.90;;;;;;5088012;28;20028;-70
2022/10/10 01:52:49;;;;;;;9.88;6.95;;;11.30;99.90;;;;;;5086855;28;20024;-71
2022/10/10 01:55:33;;;;;;;7.93;6.22;;;11.30;99.90;;;;;;5088994;28;20057;-71
2022/10/10 01:58:33;;;;;;;9.90;6.35;;;11.30;99.90;;;;;;5090395;28;20036;-71
2022/10/10 02:01:21;;;;;;;7.97;5.72;;;11.30;99.90;;;;;;5083577;28;20032;-70
2022/10/10 02:03:53;;;;;;;8.57;6.18;;;11.30;99.90;;;;;;5078181;28;20081;-70
2022/10/10 02:06:22;;;;;;;10.77;6.80;;;11.30;99.90;;;;;;5089405;28;20032;-70
2022/10/10 02:08:54;;;;;;;9.55;6.78;;;11.20;99.90;;;;;;5090473;28;20032;-70
2022/10/10 02:11:22;;;;;;;7.95;6.55;;;11.20;99.90;;;;;;5089497;28;20674;-70
2022/10/10 02:13:52;;;;;;;9.98;7.38;;;11.20;99.90;;;;;;5090393;28;20103;-69
2022/10/10 02:16:25;;;;;;;8.23;6.50;;;11.20;99.90;;;;;;5087990;28;20739;-70
2022/10/10 02:18:52;;;;;;;9.52;6.72;;;11.20;99.90;;;;;;5090882;28;20060;-69
2022/10/10 02:21:19;;;;;;;7.80;6.57;;;11.20;99.90;;;;;;5089002;28;20024;-70
2022/10/10 02:23:49;;;;;;;8.32;6.13;;;11.10;99.90;;;;;;5072698;28;20024;-70
2022/10/10 02:26:17;;;;;;;24.48;8.35;;;11.10;99.90;;;;;;5090073;28;20081;-70
2022/10/10 02:29:01;;;;;;;12.38;7.47;;;11.10;99.90;;;;;;5090006;28;20082;-69
2022/10/10 02:31:36;;;;;;;11.43;6.47;;;11.10;99.90;;;;;;5085903;28;20032;-69
2022/10/10 02:34:24;;;;;;;8.20;6.43;;;11.10;99.90;;;;;;5093715;28;20044;-69
2022/10/10 02:36:53;;;;;;;10.30;7.47;;;11.10;99.90;;;;;;5092498;28;20040;-69
2022/10/10 02:39:25;;;;;;;7.70;5.67;;;11.00;99.90;;;;;;5085725;28;20709;-70
2022/10/10 02:41:52;;;;;;;9.00;6.82;;;11.00;99.90;;;;;;5092506;28;20039;-70
2022/10/10 02:44:18;;;;;;;8.02;6.43;;;11.00;99.90;;;;;;5093393;28;20341;-71
2022/10/10 02:46:43;;;;;;;8.57;6.25;;;11.00;99.90;;;;;;5074475;28;20358;-71
2022/10/10 02:49:10;;;;;;;9.45;6.13;;;11.00;99.90;;;;;;5091963;28;20063;-71
2022/10/10 02:51:37;;;;;;;6.85;6.00;;;10.90;99.90;;;;;;5093524;28;20024;-71
2022/10/10 02:54:03;;;;;;;8.57;6.68;;;10.90;99.90;;;;;;5093661;28;20056;-72
2022/10/10 02:56:29;;;;;;;7.90;6.38;;;10.80;99.90;;;;;;5092206;28;20036;-70
2022/10/10 02:58:55;;;;;;;11.23;7.28;;;10.80;99.90;;;;;;5094754;28;20378;-71
2022/10/10 03:01:20;;;;;;;9.27;6.72;;;10.80;99.90;;;;;;5092520;28;20073;-70
2022/10/10 03:03:46;;;;;;;8.38;6.65;;;10.80;99.90;;;;;;5091789;28;20089;-71
2022/10/10 03:06:11;;;;;;;9.80;7.18;;;10.70;99.90;;;;;;5092122;28;20032;-71
2022/10/10 03:08:37;;;;;;;8.10;6.43;;;10.70;99.90;;;;;;5094089;28;20377;-72
2022/10/10 03:11:04;;;;;;;12.35;7.13;;;10.60;99.90;;;;;;5092272;28;20473;-71
2022/10/10 03:13:29;;;;;;;8.95;6.88;;;10.60;99.90;;;;;;5093836;28;20047;-71
2022/10/10 03:15:55;;;;;;;9.23;7.30;;;10.60;99.90;;;;;;5073847;28;20444;-71
2022/10/10 03:18:20;;;;;;;8.05;6.35;;;10.60;99.90;;;;;;5092872;28;20036;-70
2022/10/10 03:20:50;;;;;;;9.75;6.68;;;10.60;99.90;;;;;;5091631;28;20073;-71
2022/10/10 03:23:15;;;;;;;13.50;7.40;;;10.50;99.90;;;;;;5092793;28;20454;-71
2022/10/10 03:25:44;;;;;;;8.75;6.70;;;10.50;99.90;;;;;;5092507;28;20035;-70
2022/10/10 03:28:10;;;;;;;9.38;7.20;;;10.50;99.90;;;;;;5091129;28;20032;-70
2022/10/10 03:30:36;;;;;;;10.27;8.05;;;10.50;99.90;;;;;;5092582;28;20024;-71
2022/10/10 03:33:02;;;;;;;9.18;7.60;;;10.50;99.90;;;;;;5092465;28;20081;-70
2022/10/10 03:35:28;;;;;;;14.35;8.07;;;10.50;99.90;;;;;;5091277;28;20099;-71
2022/10/10 03:37:54;;;;;;;11.80;8.02;;;10.60;99.90;;;;;;5090884;28;20036;-71
2022/10/10 03:40:20;;;;;;;9.15;7.53;;;10.50;99.90;;;;;;5091571;28;20163;-71
2022/10/10 03:42:45;;;;;;;10.27;7.75;;;10.50;99.90;;;;;;5088975;28;20478;-70
2022/10/10 03:45:11;;;;;;;9.23;7.03;;;10.50;99.90;;;;;;5092195;28;20036;-69
2022/10/10 03:47:36;;;;;;;9.65;7.03;;;10.50;99.90;;;;;;5092019;28;20027;-70
2022/10/10 03:50:03;;;;;;;10.35;8.02;;;10.40;99.90;;;;;;5091504;28;20032;-69
2022/10/10 03:52:28;;;;;;;10.15;7.57;;;10.40;99.90;;;;;;5091330;28;20145;-70
2022/10/10 03:54:54;;;;;;;9.00;7.25;;;10.40;99.90;;;;;;5091992;28;20129;-70
2022/10/10 03:57:19;;;;;;;8.45;6.88;;;10.50;99.90;;;;;;5090839;28;20028;-69
2022/10/10 03:59:45;;;;;;;11.80;7.50;;;10.50;99.90;;;;;;5092714;28;20523;-71
2022/10/10 04:02:10;;;;;;;7.80;6.53;;;10.50;99.90;;;;;;5091382;28;20039;-70
2022/10/10 04:04:36;;;;;;;11.18;7.55;;;10.50;99.90;;;;;;5073537;28;20109;-70
2022/10/10 04:07:02;;;;;;;8.77;7.55;;;10.50;99.90;;;;;;5090821;28;20401;-70
2022/10/10 04:09:27;;;;;;;8.43;6.97;;;10.50;99.90;;;;;;5090013;28;20056;-70
2022/10/10 04:11:53;;;;;;;10.25;8.20;;;10.50;99.90;;;;;;5091759;28;20532;-70
2022/10/10 04:14:18;;;;;;;9.80;7.25;;;10.50;99.90;;;;;;5091748;28;20158;-71
2022/10/10 04:16:44;;;;;;;9.65;7.68;;;10.50;99.90;;;;;;5091190;28;20047;-71
2022/10/10 04:19:09;;;;;;;10.85;7.07;;;10.60;99.90;;;;;;5091673;28;20039;-71
2022/10/10 04:21:35;;;;;;;13.20;7.22;;;10.60;99.90;;;;;;5091360;28;20426;-71
2022/10/10 04:24:01;;;;;;;8.95;7.03;;;10.60;99.90;;;;;;5073531;28;20032;-71
2022/10/10 04:26:33;;;;;;;10.20;7.30;;;10.60;99.90;;;;;;5089425;28;20046;-71
2022/10/10 04:28:59;;;;;;;10.60;6.97;;;10.70;99.90;;;;;;5091738;28;20104;-71
2022/10/10 04:31:24;;;;;;;9.85;6.38;;;10.60;99.90;;;;;;5091316;28;20067;-71
2022/10/10 04:33:50;;;;;;;8.57;6.38;;;10.60;99.90;;;;;;5092330;28;20028;-71
2022/10/10 04:36:16;;;;;;;7.95;7.07;;;10.60;99.90;;;;;;5090044;28;20032;-71
2022/10/10 04:38:42;;;;;;;9.60;6.53;;;10.50;99.90;;;;;;5089693;28;20032;-72
2022/10/10 04:41:08;;;;;;;7.57;6.57;;;10.50;99.90;;;;;;5090907;28;20035;-72
2022/10/10 04:43:33;;;;;;;12.95;7.43;;;10.40;99.90;;;;;;5089665;28;20035;-71
2022/10/10 04:45:59;;;;;;;9.25;7.32;;;10.40;99.90;;;;;;5091341;28;20032;-71
2022/10/10 04:48:25;;;;;;;9.40;6.85;;;10.40;99.90;;;;;;5089840;28;20413;-71
2022/10/10 04:50:53;;;;;;;8.10;6.28;;;10.30;99.90;;;;;;5091143;28;20028;-71
2022/10/10 04:53:18;;;;;;;7.82;6.55;;;10.30;99.90;;;;;;5090646;28;20111;-71
2022/10/10 04:55:44;;;;;;;11.35;8.05;;;10.30;99.90;;;;;;5091296;28;20526;-70
2022/10/10 04:58:10;;;;;;;10.82;7.03;;;10.20;99.90;;;;;;5090003;28;20072;-71
2022/10/10 05:00:38;;;;;;;12.45;7.70;;;10.20;99.90;;;;;;5089997;28;20028;-71
2022/10/10 05:03:03;;;;;;;9.30;7.18;;;10.20;99.90;;;;;;5089922;28;20094;-70
2022/10/10 05:05:30;;;;;;;8.82;6.97;;;10.20;99.90;;;;;;5091134;28;20036;-70
2022/10/10 05:07:55;;;;;;;10.50;7.47;;;10.20;99.90;;;;;;5089875;28;20024;-71
2022/10/10 05:10:21;;;;;;;12.23;6.90;;;10.10;99.90;;;;;;5089559;28;20219;-70
2022/10/10 05:12:47;;;;;;;11.20;6.97;;;10.10;99.90;;;;;;5091242;28;20074;-70
2022/10/10 05:15:13;;;;;;;8.32;7.43;;;10.10;99.90;;;;;;5088949;28;20089;-71
2022/10/10 05:17:39;;;;;;;9.07;7.63;;;10.10;99.90;;;;;;5088651;28;20035;-71
2022/10/10 05:20:05;;;;;;;8.95;6.93;;;10.10;99.90;;;;;;5089900;28;20024;-71
2022/10/10 05:22:31;;;;;;;9.52;7.28;;;10.10;99.90;;;;;;5090843;28;20070;-70
2022/10/10 05:24:58;;;;;;;10.05;7.25;;;10.10;99.90;;;;;;5090718;28;20080;-70
2022/10/10 05:27:25;;;;;;;12.60;7.75;;;10.10;99.90;;;;;;5088794;28;20051;-70
2022/10/10 05:29:50;;;;;;;11.15;7.28;;;10.10;99.90;;;;;;5090193;28;20039;-71
2022/10/10 05:32:16;;;;;;;8.82;6.82;;;10.10;99.90;;;;;;5089063;28;20396;-71
2022/10/10 05:34:41;;;;;;;10.35;7.50;;;10.20;99.90;;;;;;5073137;28;20031;-70
2022/10/10 05:37:10;;;;;;;7.80;6.30;;;10.20;99.90;;;;;;5085177;28;20036;-70
2022/10/10 05:39:35;;;;;;;8.52;6.93;;;10.20;99.90;;;;;;5072675;28;20392;-70
2022/10/10 05:42:01;;;;;;;12.85;8.77;;;10.20;99.90;;;;;;5089672;28;20055;-70
2022/10/10 05:44:27;;;;;;;11.68;8.07;;;10.20;99.90;;;;;;5090438;28;20035;-70
2022/10/10 05:46:52;;;;;;;8.90;7.28;;;10.20;99.90;;;;;;5089544;28;20055;-73
2022/10/10 05:49:18;;;;;;;11.25;6.85;;;10.20;99.90;;;;;;5090055;28;20091;-69
2022/10/10 05:51:44;;;;;;;14.57;9.02;;;10.20;99.90;;;;;;5090307;28;20119;-72
2022/10/10 05:54:10;;;;;;;14.05;7.85;;;10.20;99.90;;;;;;5089114;28;20455;-76
2022/10/10 05:56:36;;;;;;;11.68;7.80;;;10.30;99.90;;;;;;5089233;28;20028;-70
2022/10/10 05:59:02;;;;;;;10.27;6.93;;;10.40;99.90;;;;;;5090396;28;20070;-73
2022/10/10 06:01:27;;;;;;;11.93;6.60;;;10.50;99.90;;;;;;5093319;28;20056;-72
2022/10/10 06:03:54;;;;;;;8.65;6.43;;;10.60;99.90;;;;;;5095035;28;20067;-70
2022/10/10 06:06:24;;;;;;;10.75;7.43;;;10.60;99.90;;;;;;5093871;28;20036;-72
2022/10/10 06:08:51;;;;;;;9.35;7.03;;;10.70;99.90;;;;;;5093649;28;20107;-72
2022/10/10 06:11:18;;;;;;;13.80;6.90;;;10.70;99.90;;;;;;5090285;28;20032;-72
2022/10/10 06:13:44;;;;;;;13.05;7.20;;;10.80;99.90;;;;;;5094949;28;20032;-75
2022/10/10 06:16:10;;;;;;;12.52;7.45;;;10.90;99.90;;;;;;5092833;28;20040;-73
2022/10/10 06:18:36;;;;;;;14.65;7.57;;;11.00;99.90;;;;;;5093924;28;20036;-73
2022/10/10 06:21:04;;;;;;;9.32;7.22;;;11.00;99.90;;;;;;5093027;28;20055;-74
2022/10/10 06:23:30;;;;;;;11.18;7.25;;;11.00;99.90;;;;;;5085218;28;20538;-74
2022/10/10 06:25:55;;;;;;;11.43;7.25;;;10.90;99.90;;;;;;5093196;28;20457;-79
2022/10/10 06:28:21;;;;;;;11.18;7.25;;;11.00;99.90;;;;;;5089921;28;20099;-82
2022/10/10 06:30:49;;;;;;;11.38;6.97;;;11.00;99.90;;;;;;5093960;28;20478;-83
2022/10/10 06:33:17;;;;;;;10.90;7.30;;;11.10;99.90;;;;;;5104015;28;20028;-82
2022/10/10 06:35:44;;;;;;;10.20;7.60;;;11.10;99.90;;;;;;5092886;28;22621;-79
2022/10/10 06:38:11;;;;;;;14.10;8.15;;;11.20;99.90;;;;;;5091002;28;20059;-72
2022/10/10 06:40:37;;;;;;;8.65;6.63;;;11.30;99.90;;;;;;5088573;28;20101;-72
2022/10/10 06:43:03;;;;;;;12.10;7.13;;;11.50;99.90;;;;;;5093443;28;20464;-77
2022/10/10 06:45:29;;;;;;;13.07;7.25;;;11.50;99.90;;;;;;5092119;28;20028;-72
2022/10/10 06:47:55;;;;;;;13.15;8.45;;;11.60;99.90;;;;;;5092925;28;20051;-73
2022/10/10 06:50:20;;;;;;;15.38;9.23;;;11.60;99.90;;;;;;5092838;28;20056;-71
2022/10/10 06:52:46;;;;;;;15.52;9.02;;;11.70;99.90;;;;;;5092654;28;20505;-71
2022/10/10 06:55:11;;;;;;;18.25;8.70;;;11.70;99.90;;;;;;5092092;28;20472;-71
2022/10/10 06:57:37;;;;;;;18.15;9.20;;;11.70;99.90;;;;;;5097906;28;20040;-72
2022/10/10 07:00:04;;;;;;;12.73;8.85;;;11.70;99.90;;;;;;5089357;28;20362;-72
2022/10/10 07:02:30;;;;;;;14.15;8.63;;;11.70;99.90;;;;;;5088968;28;20074;-71
2022/10/10 07:04:55;;;;;;;21.00;8.73;;;11.80;99.90;;;;;;5094197;28;20430;-72
2022/10/10 07:07:21;;;;;;;11.48;8.70;;;11.80;99.90;;;;;;5087981;28;20259;-72
2022/10/10 07:09:47;;;;;;;13.80;8.68;;;11.90;99.90;;;;;;5092901;28;20028;-72
2022/10/10 07:12:12;;;;;;;13.32;8.23;;;11.90;99.90;;;;;;5091401;28;20103;-72
2022/10/10 07:14:38;;;;;;;13.93;7.85;;;12.00;99.90;;;;;;5092745;28;20054;-72
2022/10/10 07:17:03;;;;;;;12.60;7.65;;;12.10;99.90;;;;;;5090567;28;20043;-71
2022/10/10 07:19:29;;;;;;;10.07;7.03;;;12.10;99.90;;;;;;5090344;28;20077;-72
2022/10/10 07:21:54;;;;;;;10.43;8.18;;;12.20;99.90;;;;;;5089558;28;20527;-71
2022/10/10 07:24:20;;;;;;;13.27;7.70;;;12.30;99.90;;;;;;5090273;28;20076;-71
2022/10/10 07:26:46;;;;;;;11.80;7.35;;;12.30;99.90;;;;;;5089948;28;20111;-71
2022/10/10 07:29:12;;;;;;;16.67;7.90;;;12.40;99.90;;;;;;5091563;28;20028;-71
2022/10/10 07:31:37;;;;;;;9.80;7.15;;;12.60;99.90;;;;;;5090560;28;20119;-71
2022/10/10 07:34:04;;;;;;;13.02;7.28;;;12.70;99.90;;;;;;5084924;28;20505;-71
2022/10/10 07:36:30;;;;;;;12.75;6.63;;;12.70;99.90;;;;;;5089919;28;20027;-71
2022/10/10 07:38:56;;;;;;;10.85;6.68;;;12.80;99.90;;;;;;5088873;28;20131;-71
2022/10/10 07:41:21;;;;;;;10.82;7.03;;;13.00;99.90;;;;;;5090877;28;20842;-71
2022/10/10 07:43:52;;;;;;;14.13;8.05;;;13.10;99.90;;;;;;5068278;28;20033;-72
2022/10/10 07:46:18;;;;;;;;;;;13.10;99.90;;;;;;5091536;28;20115;-72
2022/10/10 07:48:44;;;;;;;11.18;7.07;;;13.20;99.90;;;;;;5087699;28;19927;-73
2022/10/10 07:51:10;;;;;;;8.90;6.00;;;13.20;99.90;;;;;;5081693;28;20024;-70
2022/10/10 07:53:37;;;;;;;8.65;5.82;;;13.30;99.90;;;;;;5092433;28;20085;-71
2022/10/10 07:56:05;;;;;;;10.57;6.38;;;13.30;99.90;;;;;;5083960;28;20055;-71
2022/10/10 07:58:32;;;;;;;10.05;6.43;;;13.40;99.90;;;;;;5078927;28;20033;-72
2022/10/10 08:01:07;;;;;;;7.53;5.65;;;13.50;99.90;;;;;;5085680;28;20040;-70
2022/10/10 08:03:33;;;;;;;9.48;6.00;;;13.60;99.90;;;;;;5090321;28;20032;-71
2022/10/10 08:06:03;;;;;;;11.30;7.25;;;13.80;99.90;;;;;;5086382;28;20104;-72
2022/10/10 08:08:28;;;;;;;11.90;6.43;;;14.00;99.90;;;;;;5086860;28;20071;-72
2022/10/10 08:10:54;;;;;;;10.07;7.07;;;14.10;99.90;;;;;;5068726;28;20506;-73
2022/10/10 08:13:19;;;;;;;9.25;6.88;;;14.30;99.90;;;;;;5090547;28;20041;-72
2022/10/10 08:15:50;;;;;;;11.45;6.45;;;14.40;99.90;;;;;;5090870;28;20086;-72
2022/10/10 08:18:15;;;;;;;9.00;6.28;;;14.50;99.90;;;;;;5085112;28;20039;-72
2022/10/10 08:20:41;;;;;;;10.70;6.15;;;14.60;99.90;;;;;;5083270;28;20397;-71
2022/10/10 08:23:06;;;;;;;13.65;6.53;;;14.60;99.90;;;;;;5089709;28;20024;-71
2022/10/10 08:25:32;;;;;;;10.10;6.97;;;14.80;99.90;;;;;;5089878;28;20587;-70
2022/10/10 08:27:58;;;;;;;11.05;5.82;;;14.90;99.90;;;;;;5090476;28;20046;-71
2022/10/10 08:30:23;;;;;;;10.13;6.97;;;15.00;99.90;;;;;;5088869;28;20028;-72
2022/10/10 08:32:49;;;;;;;8.60;5.47;;;15.10;99.90;;;;;;5091450;28;20469;-72
2022/10/10 08:35:14;;;;;;;12.82;6.45;;;15.20;99.90;;;;;;5090074;28;20035;-72
2022/10/10 08:37:40;;;;;;;9.98;6.25;;;15.20;99.90;;;;;;5091361;28;20105;-72
2022/10/10 08:40:07;;;;;;;18.30;7.05;;;15.30;99.90;;;;;;5069378;28;20035;-71
2022/10/10 08:42:39;;;;;;;15.85;6.80;;;15.40;99.90;;;;;;5088863;28;20032;-72
2022/10/10 08:45:19;;;;;;;11.07;6.60;;;15.50;99.90;;;;;;5089522;28;20554;-72
2022/10/10 08:48:13;;;;;;;10.63;6.80;;;15.60;99.90;;;;;;5090390;28;20036;-72
2022/10/10 08:50:54;;;;;;;10.35;6.72;;;15.50;99.90;;;;;;5090689;28;20063;-71
2022/10/10 08:53:42;;;;;;;9.13;6.30;;;15.50;99.90;;;;;;5082317;28;20020;-72
2022/10/10 08:56:14;;;;;;;10.45;6.28;;;15.60;99.90;;;;;;5090252;28;20024;-72
2022/10/10 08:58:46;;;;;;;10.90;6.05;;;15.70;99.90;;;;;;5083750;28;20427;-72
2022/10/10 09:01:18;;;;;;;10.30;6.20;;;15.80;99.90;;;;;;5089920;28;20039;-72
2022/10/10 09:03:49;;;;;;;13.45;6.25;;;16.00;99.90;;;;;;5091727;28;20028;-72
2022/10/10 09:06:18;;;;;;;10.23;5.53;;;16.20;99.90;;;;;;5089207;28;20043;-72
2022/10/10 09:09:19;;;;;;;11.68;6.25;;;16.40;99.90;;;;;;5087112;28;20051;-72
2022/10/10 09:12:06;;;;;;;10.55;6.43;;;16.60;99.90;;;;;;5024243;28;20037;-70
2022/10/10 09:14:31;;;;;;;12.75;5.60;;;16.70;99.90;;;;;;5081497;28;20032;-72
2022/10/10 09:16:57;;;;;;;16.05;6.43;;;16.80;99.90;;;;;;5085147;28;20829;-72
2022/10/10 09:19:41;;;;;;;10.73;5.72;;;16.90;99.90;;;;;;5079720;28;20421;-72
2022/10/10 09:22:18;;;;;;;12.10;5.72;;;16.90;99.90;;;;;;5086952;28;20051;-72
2022/10/10 09:24:55;;;;;;;10.07;4.95;;;17.10;99.90;;;;;;5090560;28;20024;-72
2022/10/10 09:27:26;;;;;;;5.50;3.35;;;17.20;99.90;;;;;;5087315;28;20516;-72
2022/10/10 09:30:05;;;;;;;7.07;3.20;;;17.40;99.90;;;;;;5088375;28;20024;-72
2022/10/10 09:32:41;;;;;;;4.97;2.85;;;17.70;99.90;;;;;;5084175;28;20019;-71
2022/10/10 09:35:20;;;;;;;9.50;3.30;;;17.90;99.90;;;;;;5086740;28;20449;-71
2022/10/10 09:37:49;;;;;;;10.07;5.03;;;18.20;99.90;;;;;;5090581;28;20031;-71
2022/10/10 09:40:25;;;;;;;11.48;5.03;;;18.30;99.90;;;;;;5089295;28;20039;-71
2022/10/10 09:42:52;;;;;;;12.45;8.05;;;18.30;99.90;;;;;;5090716;28;20066;-72
2022/10/10 09:45:19;;;;;;;20.35;13.75;;;18.20;99.90;;;;;;5086644;28;20059;-72
2022/10/10 09:47:50;;;;;;;9.88;6.93;;;18.10;99.90;;;;;;5084787;28;20051;-71
2022/10/10 09:50:16;;;;;;;12.00;5.20;;;18.10;99.90;;;;;;5090495;28;20804;-72
2022/10/10 09:52:42;;;;;;;8.52;4.40;;;18.10;99.90;;;;;;5089979;28;20036;-71
2022/10/10 09:55:25;;;;;;;9.52;4.57;;;18.20;99.90;;;;;;5088024;28;20568;-71
2022/10/10 09:57:53;;;;;;;9.85;4.40;;;18.30;99.90;;;;;;5090421;28;20358;-72
2022/10/10 10:00:19;;;;;;;11.95;4.13;;;18.30;99.90;;;;;;5089069;28;20581;-71
2022/10/10 10:02:49;;;;;;;12.00;4.05;;;18.40;99.90;;;;;;5090425;28;20027;-72
2022/10/10 10:05:24;;;;;;;7.68;3.85;;;18.50;99.90;;;;;;5088951;28;20098;-70
2022/10/10 10:07:54;;;;;;;12.65;4.53;;;18.70;99.90;;;;;;5041459;28;20036;-72
2022/10/10 10:10:24;;;;;;;7.22;4.05;;;18.90;99.90;;;;;;5089356;28;20036;-72
2022/10/10 10:12:51;;;;;;;7.00;3.08;;;19.10;99.90;;;;;;5090319;28;20174;-73
2022/10/10 10:15:25;;;;;;;9.10;3.42;;;19.30;99.90;;;;;;5089436;28;20094;-73
2022/10/10 10:18:18;;;;;;;8.60;4.18;;;19.50;99.90;;;;;;5090279;28;20028;-72
2022/10/10 10:20:49;;;;;;;13.60;3.72;;;19.70;99.90;;;;;;5090019;28;20051;-73
2022/10/10 10:23:26;;;;;;;9.38;3.40;;;19.90;99.90;;;;;;5089834;28;20024;-71
2022/10/10 10:26:03;;;;;;;10.90;4.55;;;20.20;99.90;;;;;;5089999;28;20036;-72
2022/10/10 10:28:29;;;;;;;6.28;3.50;;;20.40;99.90;;;;;;5090391;28;20032;-71
2022/10/10 10:30:57;;;;;;;9.65;3.85;;;20.60;99.90;;;;;;5089854;28;20024;-71
2022/10/10 10:33:42;;;;;;;7.30;3.20;;;20.70;99.90;;;;;;5092330;28;20770;-72
2022/10/10 10:36:30;;;;;;;4.20;3.20;;;20.80;99.90;;;;;;5036653;28;20408;-73
2022/10/10 10:39:24;;;;;;;6.85;3.15;;;20.90;99.90;;;;;;5084351;28;20021;-71
2022/10/10 10:42:10;;;;;;;8.18;2.83;;;21.00;99.90;;;;;;5078177;28;20030;-71
2022/10/10 10:44:56;;;;;;;6.75;2.55;;;21.20;99.90;;;;;;5090072;28;20477;-71
2022/10/10 10:47:42;;;;;;;6.80;3.25;;;21.20;99.90;;;;;;5083228;28;20579;-71
2022/10/10 10:50:48;;;;;;;7.50;2.33;;;21.40;99.90;;;;;;5086545;28;20472;-72
2022/10/10 10:53:20;;;;;;;6.13;2.38;;;21.50;99.90;;;;;;5048277;28;20025;-71
2022/10/10 10:56:15;;;;;;;7.65;2.55;;;21.50;99.90;;;;;;5050501;28;20025;-71
2022/10/10 10:58:52;;;;;;;10.43;1.83;;;21.60;99.90;;;;;;5071806;28;20078;-71
2022/10/10 11:01:44;;;;;;;7.30;2.17;;;21.60;99.90;;;;;;5087956;28;20399;-71
2022/10/10 11:04:33;;;;;;;5.63;2.15;;;21.50;99.90;;;;;;5093869;28;20058;-72
2022/10/10 11:07:15;;;;;;;4.72;1.83;;;21.30;99.90;;;;;;5080622;28;20054;-72
2022/10/10 11:09:52;;;;;;;5.72;2.20;;;21.10;99.90;;;;;;5083682;28;20016;-72
2022/10/10 11:12:30;;;;;;;6.57;1.77;;;21.10;99.90;;;;;;5091426;28;20130;-71
2022/10/10 11:14:59;;;;;;;8.48;2.88;;;21.20;99.90;;;;;;5092975;28;20024;-73
2022/10/10 11:17:54;;;;;;;4.90;3.03;;;21.30;99.90;;;;;;5093355;28;20028;-71
2022/10/10 11:20:40;;;;;;;7.50;2.50;;;21.30;99.90;;;;;;5091996;28;20053;-72
2022/10/10 11:23:20;;;;;;;7.53;2.38;;;21.40;99.90;;;;;;5091551;28;20044;-71
2022/10/10 11:25:54;;;;;;;3.95;2.63;;;21.50;99.90;;;;;;5086467;28;20035;-72
2022/10/10 11:28:30;;;;;;;8.52;2.33;;;21.50;99.90;;;;;;5089992;28;20100;-72
2022/10/10 11:31:04;;;;;;;4.65;1.98;;;21.60;99.90;;;;;;5091845;28;20016;-73
2022/10/10 11:33:35;;;;;;;4.85;1.88;;;21.60;99.90;;;;;;5093440;28;20373;-72
2022/10/10 11:36:17;;;;;;;6.60;2.15;;;21.70;99.90;;;;;;5086312;28;20037;-72
2022/10/10 11:38:59;;;;;;;6.78;2.55;;;21.70;99.90;;;;;;5088499;28;20063;-72
2022/10/10 11:41:33;;;;;;;9.05;2.63;;;21.90;99.90;;;;;;5080880;28;20016;-73
2022/10/10 11:44:04;;;;;;;7.53;2.58;;;22.00;99.90;;;;;;5092400;28;20396;-73
2022/10/10 11:46:44;;;;;;;6.57;2.15;;;22.10;99.90;;;;;;5091756;28;20421;-72
2022/10/10 11:49:17;;;;;;;6.68;2.25;;;22.20;99.90;;;;;;5073264;28;20063;-72
2022/10/10 11:51:54;;;;;;;10.93;2.38;;;22.40;99.90;;;;;;5091647;28;20032;-73
2022/10/10 11:54:26;;;;;;;10.63;2.85;;;22.80;99.90;;;;;;5084544;28;20068;-73
2022/10/10 11:56:57;;;;;;;6.60;2.03;;;23.20;99.90;;;;;;5072945;28;20119;-73
2022/10/10 11:59:35;;;;;;;11.05;2.97;;;23.50;99.90;;;;;;5091170;28;20050;-72
2022/10/10 12:02:09;;;;;;;6.07;2.22;;;23.70;99.90;;;;;;5090135;28;20531;-72
2022/10/10 12:04:35;;;;;;;9.40;2.75;;;23.90;99.90;;;;;;5088750;28;20024;-72
2022/10/10 12:07:12;;;;;;;5.55;2.88;;;24.30;99.90;;;;;;5086866;28;20174;-72
2022/10/10 12:09:46;;;;;;;9.50;2.67;;;24.60;99.90;;;;;;5092426;28;20020;-72
2022/10/10 12:12:17;;;;;;;6.68;2.55;;;24.70;99.00;;;;;;5090849;28;20024;-72
2022/10/10 12:14:52;;;;;;;9.50;2.58;;;25.00;97.20;;;;;;5091861;28;20024;-71
2022/10/10 12:17:21;;;;;;;10.65;3.25;;;25.00;95.30;;;;;;5089839;28;20035;-72
2022/10/10 12:19:49;;;;;;;9.82;2.92;;;25.10;94.80;;;;;;5091166;28;20031;-74
2022/10/10 12:22:29;;;;;;;8.95;2.50;;;25.20;94.40;;;;;;5090340;28;20032;-74
2022/10/10 12:25:06;;;;;;;11.55;3.10;;;25.30;94.00;;;;;;5086378;28;20066;-74
2022/10/10 12:27:44;;;;;;;7.30;2.95;;;25.70;93.30;;;;;;5090919;28;20028;-72
2022/10/10 12:30:18;;;;;;;7.05;2.55;;;25.90;92.90;;;;;;5090270;28;20073;-72
2022/10/10 12:32:46;;;;;;;18.83;3.60;;;26.20;92.80;;;;;;5092222;28;20397;-77
2022/10/10 12:35:39;;;;;;;13.98;3.83;;;26.60;92.80;;;;;;5077871;28;20035;-72
2022/10/10 12:38:04;;;;;;;12.02;2.63;;;27.10;93.80;;;;;;5090737;28;20036;-73
2022/10/10 12:40:31;;;;;;;13.70;3.42;;;27.50;92.90;;;;;;5091657;28;20177;-72
2022/10/10 12:42:57;;;;;;;59.00;7.78;;;27.60;95.60;;;;;;5091871;28;20486;-73
2022/10/10 12:45:28;;;;;;;18.10;4.22;;;27.60;95.20;;;;;;5088566;28;20171;-71
2022/10/10 12:48:05;;;;;;;9.73;3.05;;;27.50;94.90;;;;;;5090391;28;20044;-72
2022/10/10 12:50:40;;;;;;;11.88;3.00;;;27.30;94.90;;;;;;5082105;28;20398;-72
2022/10/10 12:53:12;;;;;;;10.93;2.80;;;27.50;94.60;;;;;;5090851;28;20024;-72
2022/10/10 12:55:45;;;;;;;84.10;5.85;;;27.70;93.90;;;;;;5072793;28;20075;-73
2022/10/10 12:58:29;;;;;;;10.20;3.40;;;27.40;93.80;;;;;;5090319;28;20024;-73
2022/10/10 13:00:56;;;;;;;10.48;3.30;;;26.90;94.00;;;;;;5078858;28;20055;-72